sensor_id;sensor_type;location;lat;lon;timestamp;P1;durP1;ratioP1;P2;durP2;ratioP2
21091;SDS011;10704;42.678;23.288;2022-11-14T00:01:51;65.03;;;34.17;;
21091;SDS011;10704;42.678;23.288;2022-11-14T00:04:36;73.15;;;37.92;;
21091;SDS011;10704;42.678;23.288;2022-11-14T00:07:20;74.07;;;39.13;;
21091;SDS011;10704;42.678;23.288;2022-11-14T00:10:05;76.80;;;39.65;;
21091;SDS011;10704;42.678;23.288;2022-11-14T00:12:49;74.57;;;39.28;;
21091;SDS011;10704;42.678;23.288;2022-11-14T00:15:34;74.30;;;39.33;;
21091;SDS011;10704;42.678;23.288;2022-11-14T00:18:19;79.88;;;40.63;;
21091;SDS011;10704;42.678;23.288;2022-11-14T00:21:04;77.88;;;39.88;;
21091;SDS011;10704;42.678;23.288;2022-11-14T00:23:49;80.68;;;41.38;;
21091;SDS011;10704;42.678;23.288;2022-11-14T00:26:33;79.65;;;42.25;;
21091;SDS011;10704;42.678;23.288;2022-11-14T00:29:18;81.10;;;43.75;;
21091;SDS011;10704;42.678;23.288;2022-11-14T00:32:03;87.10;;;43.90;;
21091;SDS011;10704;42.678;23.288;2022-11-14T00:34:49;89.35;;;47.25;;
21091;SDS011;10704;42.678;23.288;2022-11-14T00:37:33;89.03;;;46.28;;
21091;SDS011;10704;42.678;23.288;2022-11-14T00:40:18;89.22;;;45.53;;
21091;SDS011;10704;42.678;23.288;2022-11-14T00:43:03;80.78;;;41.38;;
21091;SDS011;10704;42.678;23.288;2022-11-14T00:45:47;64.63;;;35.55;;
21091;SDS011;10704;42.678;23.288;2022-11-14T00:48:32;56.80;;;29.95;;
21091;SDS011;10704;42.678;23.288;2022-11-14T00:51:16;57.50;;;30.08;;
21091;SDS011;10704;42.678;23.288;2022-11-14T00:54:00;56.58;;;29.70;;
21091;SDS011;10704;42.678;23.288;2022-11-14T00:56:45;60.63;;;32.95;;
21091;SDS011;10704;42.678;23.288;2022-11-14T00:59:30;53.72;;;28.02;;
21091;SDS011;10704;42.678;23.288;2022-11-14T01:02:14;55.53;;;30.70;;
21091;SDS011;10704;42.678;23.288;2022-11-14T01:04:59;48.20;;;26.95;;
21091;SDS011;10704;42.678;23.288;2022-11-14T01:07:45;54.17;;;27.20;;
21091;SDS011;10704;42.678;23.288;2022-11-14T01:10:29;55.28;;;29.05;;
21091;SDS011;10704;42.678;23.288;2022-11-14T01:13:14;59.60;;;31.90;;
21091;SDS011;10704;42.678;23.288;2022-11-14T01:16:00;72.05;;;36.30;;
21091;SDS011;10704;42.678;23.288;2022-11-14T01:18:45;79.32;;;40.05;;
21091;SDS011;10704;42.678;23.288;2022-11-14T01:21:30;81.15;;;41.13;;
21091;SDS011;10704;42.678;23.288;2022-11-14T01:24:14;77.97;;;40.72;;
21091;SDS011;10704;42.678;23.288;2022-11-14T01:26:59;88.45;;;43.20;;
21091;SDS011;10704;42.678;23.288;2022-11-14T01:29:44;80.60;;;41.25;;
21091;SDS011;10704;42.678;23.288;2022-11-14T01:32:29;86.10;;;43.63;;
21091;SDS011;10704;42.678;23.288;2022-11-14T01:35:13;80.65;;;41.97;;
21091;SDS011;10704;42.678;23.288;2022-11-14T01:37:58;86.10;;;45.70;;
21091;SDS011;10704;42.678;23.288;2022-11-14T01:40:43;85.35;;;43.85;;
21091;SDS011;10704;42.678;23.288;2022-11-14T01:43:31;78.75;;;40.47;;
21091;SDS011;10704;42.678;23.288;2022-11-14T01:46:22;69.35;;;36.05;;
21091;SDS011;10704;42.678;23.288;2022-11-14T01:49:20;76.55;;;36.60;;
21091;SDS011;10704;42.678;23.288;2022-11-14T01:52:09;68.38;;;36.00;;
21091;SDS011;10704;42.678;23.288;2022-11-14T01:55:05;81.03;;;42.58;;
21091;SDS011;10704;42.678;23.288;2022-11-14T01:57:51;89.68;;;46.92;;
21091;SDS011;10704;42.678;23.288;2022-11-14T02:00:35;104.68;;;53.13;;
21091;SDS011;10704;42.678;23.288;2022-11-14T02:03:20;107.78;;;55.58;;
21091;SDS011;10704;42.678;23.288;2022-11-14T02:06:05;98.00;;;51.13;;
21091;SDS011;10704;42.678;23.288;2022-11-14T02:08:51;100.97;;;51.97;;
21091;SDS011;10704;42.678;23.288;2022-11-14T02:11:41;96.78;;;51.53;;
21091;SDS011;10704;42.678;23.288;2022-11-14T02:14:28;90.85;;;48.38;;
21091;SDS011;10704;42.678;23.288;2022-11-14T02:17:14;93.63;;;45.70;;
21091;SDS011;10704;42.678;23.288;2022-11-14T02:22:57;88.00;;;43.60;;
21091;SDS011;10704;42.678;23.288;2022-11-14T02:25:42;83.50;;;43.47;;
21091;SDS011;10704;42.678;23.288;2022-11-14T02:28:26;94.72;;;46.58;;
21091;SDS011;10704;42.678;23.288;2022-11-14T02:31:11;97.10;;;49.17;;
21091;SDS011;10704;42.678;23.288;2022-11-14T02:33:56;98.30;;;50.28;;
21091;SDS011;10704;42.678;23.288;2022-11-14T02:36:41;93.05;;;49.90;;
21091;SDS011;10704;42.678;23.288;2022-11-14T02:39:25;87.13;;;46.42;;
21091;SDS011;10704;42.678;23.288;2022-11-14T02:42:10;87.10;;;44.72;;
21091;SDS011;10704;42.678;23.288;2022-11-14T02:44:54;89.40;;;44.83;;
21091;SDS011;10704;42.678;23.288;2022-11-14T02:47:39;85.43;;;45.60;;
21091;SDS011;10704;42.678;23.288;2022-11-14T02:50:24;92.85;;;46.40;;
21091;SDS011;10704;42.678;23.288;2022-11-14T02:53:08;92.90;;;46.70;;
21091;SDS011;10704;42.678;23.288;2022-11-14T02:55:53;89.18;;;44.97;;
21091;SDS011;10704;42.678;23.288;2022-11-14T02:58:38;94.55;;;46.42;;
21091;SDS011;10704;42.678;23.288;2022-11-14T03:01:23;89.32;;;45.28;;
21091;SDS011;10704;42.678;23.288;2022-11-14T03:04:08;84.13;;;42.58;;
21091;SDS011;10704;42.678;23.288;2022-11-14T03:06:52;83.30;;;43.30;;
21091;SDS011;10704;42.678;23.288;2022-11-14T03:09:37;86.05;;;43.97;;
21091;SDS011;10704;42.678;23.288;2022-11-14T03:12:21;84.90;;;43.17;;
21091;SDS011;10704;42.678;23.288;2022-11-14T03:15:06;82.43;;;41.65;;
21091;SDS011;10704;42.678;23.288;2022-11-14T03:17:51;81.72;;;41.70;;
21091;SDS011;10704;42.678;23.288;2022-11-14T03:20:36;86.68;;;42.97;;
21091;SDS011;10704;42.678;23.288;2022-11-14T03:23:21;90.35;;;42.72;;
21091;SDS011;10704;42.678;23.288;2022-11-14T03:26:06;79.50;;;40.50;;
21091;SDS011;10704;42.678;23.288;2022-11-14T03:28:52;82.13;;;41.42;;
21091;SDS011;10704;42.678;23.288;2022-11-14T03:31:37;79.82;;;40.55;;
21091;SDS011;10704;42.678;23.288;2022-11-14T03:34:22;83.70;;;40.35;;
21091;SDS011;10704;42.678;23.288;2022-11-14T03:37:07;82.45;;;41.38;;
21091;SDS011;10704;42.678;23.288;2022-11-14T03:39:52;85.78;;;42.50;;
21091;SDS011;10704;42.678;23.288;2022-11-14T03:42:36;78.93;;;41.03;;
21091;SDS011;10704;42.678;23.288;2022-11-14T03:45:21;80.25;;;38.85;;
21091;SDS011;10704;42.678;23.288;2022-11-14T03:48:06;85.90;;;42.05;;
21091;SDS011;10704;42.678;23.288;2022-11-14T03:50:50;84.82;;;41.40;;
21091;SDS011;10704;42.678;23.288;2022-11-14T03:53:35;82.45;;;39.42;;
21091;SDS011;10704;42.678;23.288;2022-11-14T03:56:19;86.25;;;41.45;;
21091;SDS011;10704;42.678;23.288;2022-11-14T03:59:04;81.68;;;38.88;;
21091;SDS011;10704;42.678;23.288;2022-11-14T04:01:49;81.00;;;40.35;;
21091;SDS011;10704;42.678;23.288;2022-11-14T04:04:33;82.10;;;40.90;;
21091;SDS011;10704;42.678;23.288;2022-11-14T04:07:18;78.93;;;39.13;;
21091;SDS011;10704;42.678;23.288;2022-11-14T04:10:03;81.32;;;41.35;;
21091;SDS011;10704;42.678;23.288;2022-11-14T04:12:48;77.45;;;40.75;;
21091;SDS011;10704;42.678;23.288;2022-11-14T04:15:34;81.53;;;41.92;;
21091;SDS011;10704;42.678;23.288;2022-11-14T04:18:19;85.13;;;42.45;;
21091;SDS011;10704;42.678;23.288;2022-11-14T04:21:03;89.93;;;43.72;;
21091;SDS011;10704;42.678;23.288;2022-11-14T04:23:48;83.50;;;40.30;;
21091;SDS011;10704;42.678;23.288;2022-11-14T04:26:32;85.13;;;42.50;;
21091;SDS011;10704;42.678;23.288;2022-11-14T04:29:17;81.13;;;41.85;;
21091;SDS011;10704;42.678;23.288;2022-11-14T04:32:01;86.50;;;40.85;;
21091;SDS011;10704;42.678;23.288;2022-11-14T04:34:46;85.85;;;42.60;;
21091;SDS011;10704;42.678;23.288;2022-11-14T04:37:31;83.20;;;41.15;;
21091;SDS011;10704;42.678;23.288;2022-11-14T04:40:15;82.43;;;40.33;;
21091;SDS011;10704;42.678;23.288;2022-11-14T04:43:00;74.93;;;39.08;;
21091;SDS011;10704;42.678;23.288;2022-11-14T04:45:45;78.50;;;41.13;;
21091;SDS011;10704;42.678;23.288;2022-11-14T04:48:29;82.28;;;40.17;;
21091;SDS011;10704;42.678;23.288;2022-11-14T04:51:14;79.80;;;40.58;;
21091;SDS011;10704;42.678;23.288;2022-11-14T04:53:59;78.32;;;39.20;;
21091;SDS011;10704;42.678;23.288;2022-11-14T04:56:43;80.80;;;39.05;;
21091;SDS011;10704;42.678;23.288;2022-11-14T04:59:28;72.15;;;35.92;;
21091;SDS011;10704;42.678;23.288;2022-11-14T05:02:12;76.20;;;36.83;;
21091;SDS011;10704;42.678;23.288;2022-11-14T05:04:57;72.10;;;35.28;;
21091;SDS011;10704;42.678;23.288;2022-11-14T05:07:41;74.47;;;35.97;;
21091;SDS011;10704;42.678;23.288;2022-11-14T05:10:26;74.53;;;36.92;;
21091;SDS011;10704;42.678;23.288;2022-11-14T05:13:11;66.15;;;35.03;;
21091;SDS011;10704;42.678;23.288;2022-11-14T05:22:09;81.38;;;36.78;;
21091;SDS011;10704;42.678;23.288;2022-11-14T05:24:54;89.43;;;36.85;;
21091;SDS011;10704;42.678;23.288;2022-11-14T05:27:38;82.55;;;38.38;;
21091;SDS011;10704;42.678;23.288;2022-11-14T05:34:10;98.50;;;40.00;;
21091;SDS011;10704;42.678;23.288;2022-11-14T05:36:54;101.03;;;40.30;;
21091;SDS011;10704;42.678;23.288;2022-11-14T05:39:39;95.43;;;39.88;;
21091;SDS011;10704;42.678;23.288;2022-11-14T05:42:23;106.80;;;43.92;;
21091;SDS011;10704;42.678;23.288;2022-11-14T05:45:09;110.47;;;43.85;;
21091;SDS011;10704;42.678;23.288;2022-11-14T05:47:54;103.13;;;41.63;;
21091;SDS011;10704;42.678;23.288;2022-11-14T06:02:19;103.15;;;40.95;;
21091;SDS011;10704;42.678;23.288;2022-11-14T06:05:03;93.57;;;39.83;;
21091;SDS011;10704;42.678;23.288;2022-11-14T06:07:53;91.10;;;40.92;;
21091;SDS011;10704;42.678;23.288;2022-11-14T06:10:41;87.00;;;40.05;;
21091;SDS011;10704;42.678;23.288;2022-11-14T06:13:25;93.00;;;40.65;;
21091;SDS011;10704;42.678;23.288;2022-11-14T06:16:11;102.32;;;44.45;;
21091;SDS011;10704;42.678;23.288;2022-11-14T06:19:00;97.95;;;43.38;;
21091;SDS011;10704;42.678;23.288;2022-11-14T06:21:45;102.85;;;42.33;;
21091;SDS011;10704;42.678;23.288;2022-11-14T06:24:29;95.22;;;41.40;;
21091;SDS011;10704;42.678;23.288;2022-11-14T06:27:14;94.47;;;42.53;;
21091;SDS011;10704;42.678;23.288;2022-11-14T06:33:46;90.18;;;41.78;;
21091;SDS011;10704;42.678;23.288;2022-11-14T06:36:30;96.15;;;41.42;;
21091;SDS011;10704;42.678;23.288;2022-11-14T06:39:15;95.07;;;40.63;;
21091;SDS011;10704;42.678;23.288;2022-11-14T06:41:59;80.00;;;37.50;;
21091;SDS011;10704;42.678;23.288;2022-11-14T06:44:44;80.85;;;37.20;;
21091;SDS011;10704;42.678;23.288;2022-11-14T06:47:29;84.80;;;37.22;;
21091;SDS011;10704;42.678;23.288;2022-11-14T06:50:13;86.78;;;39.10;;
21091;SDS011;10704;42.678;23.288;2022-11-14T06:56:46;91.45;;;38.90;;
21091;SDS011;10704;42.678;23.288;2022-11-14T06:59:30;84.68;;;38.15;;
21091;SDS011;10704;42.678;23.288;2022-11-14T07:02:15;90.82;;;40.00;;
21091;SDS011;10704;42.678;23.288;2022-11-14T07:08:47;89.60;;;40.17;;
21091;SDS011;10704;42.678;23.288;2022-11-14T07:11:31;90.50;;;39.55;;
21091;SDS011;10704;42.678;23.288;2022-11-14T07:18:12;88.13;;;39.78;;
21091;SDS011;10704;42.678;23.288;2022-11-14T07:24:44;94.88;;;42.25;;
21091;SDS011;10704;42.678;23.288;2022-11-14T07:27:47;88.00;;;39.30;;
21091;SDS011;10704;42.678;23.288;2022-11-14T07:30:32;93.13;;;40.33;;
21091;SDS011;10704;42.678;23.288;2022-11-14T07:33:17;85.03;;;39.78;;
21091;SDS011;10704;42.678;23.288;2022-11-14T07:39:50;107.50;;;45.00;;
21091;SDS011;10704;42.678;23.288;2022-11-14T07:46:22;114.90;;;46.08;;
21091;SDS011;10704;42.678;23.288;2022-11-14T07:49:06;106.65;;;46.05;;
21091;SDS011;10704;42.678;23.288;2022-11-14T07:58:59;103.75;;;44.28;;
21091;SDS011;10704;42.678;23.288;2022-11-14T08:01:44;109.65;;;47.17;;
21091;SDS011;10704;42.678;23.288;2022-11-14T08:08:18;109.00;;;45.65;;
21091;SDS011;10704;42.678;23.288;2022-11-14T08:11:02;114.68;;;47.35;;
21091;SDS011;10704;42.678;23.288;2022-11-14T08:17:41;113.65;;;48.15;;
21091;SDS011;10704;42.678;23.288;2022-11-14T08:20:26;107.47;;;46.35;;
21091;SDS011;10704;42.678;23.288;2022-11-14T08:26:58;99.00;;;44.58;;
21091;SDS011;10704;42.678;23.288;2022-11-14T08:36:53;94.40;;;43.60;;
21091;SDS011;10704;42.678;23.288;2022-11-14T08:39:39;91.50;;;42.13;;
21091;SDS011;10704;42.678;23.288;2022-11-14T08:42:23;87.82;;;42.55;;
21091;SDS011;10704;42.678;23.288;2022-11-14T08:52:14;81.30;;;40.67;;
21091;SDS011;10704;42.678;23.288;2022-11-14T08:55:00;83.13;;;40.47;;
21091;SDS011;10704;42.678;23.288;2022-11-14T09:00:52;81.10;;;41.72;;
21091;SDS011;10704;42.678;23.288;2022-11-14T09:15:14;83.40;;;40.72;;
21091;SDS011;10704;42.678;23.288;2022-11-14T09:17:59;75.05;;;40.40;;
21091;SDS011;10704;42.678;23.288;2022-11-14T09:20:44;78.40;;;40.10;;
21091;SDS011;10704;42.678;23.288;2022-11-14T09:23:28;78.32;;;39.80;;
21091;SDS011;10704;42.678;23.288;2022-11-14T09:26:13;69.97;;;39.30;;
21091;SDS011;10704;42.678;23.288;2022-11-14T09:28:57;75.88;;;40.72;;
21091;SDS011;10704;42.678;23.288;2022-11-14T09:31:43;71.80;;;39.15;;
21091;SDS011;10704;42.678;23.288;2022-11-14T09:34:28;69.32;;;37.33;;
21091;SDS011;10704;42.678;23.288;2022-11-14T09:37:12;67.22;;;38.50;;
21091;SDS011;10704;42.678;23.288;2022-11-14T09:39:57;65.82;;;37.88;;
21091;SDS011;10704;42.678;23.288;2022-11-14T09:45:53;68.85;;;40.50;;
21091;SDS011;10704;42.678;23.288;2022-11-14T09:48:38;69.95;;;40.05;;
21091;SDS011;10704;42.678;23.288;2022-11-14T09:51:24;64.18;;;38.58;;
21091;SDS011;10704;42.678;23.288;2022-11-14T09:54:19;65.70;;;38.35;;
21091;SDS011;10704;42.678;23.288;2022-11-14T09:57:25;58.78;;;35.85;;
21091;SDS011;10704;42.678;23.288;2022-11-14T10:11:51;55.47;;;37.28;;
21091;SDS011;10704;42.678;23.288;2022-11-14T10:24:50;60.58;;;38.03;;
21091;SDS011;10704;42.678;23.288;2022-11-14T10:27:53;56.30;;;37.40;;
21091;SDS011;10704;42.678;23.288;2022-11-14T10:37:04;68.68;;;42.22;;
21091;SDS011;10704;42.678;23.288;2022-11-14T10:47:26;68.40;;;41.40;;
21091;SDS011;10704;42.678;23.288;2022-11-14T10:50:20;63.60;;;41.35;;
21091;SDS011;10704;42.678;23.288;2022-11-14T10:53:17;69.50;;;42.67;;
21091;SDS011;10704;42.678;23.288;2022-11-14T10:56:17;69.03;;;43.58;;
21091;SDS011;10704;42.678;23.288;2022-11-14T11:02:15;69.20;;;41.58;;
21091;SDS011;10704;42.678;23.288;2022-11-14T11:05:05;59.65;;;39.50;;
21091;SDS011;10704;42.678;23.288;2022-11-14T11:07:58;64.90;;;40.80;;
21091;SDS011;10704;42.678;23.288;2022-11-14T11:11:02;67.97;;;41.35;;
21091;SDS011;10704;42.678;23.288;2022-11-14T11:21:19;69.03;;;44.67;;
21091;SDS011;10704;42.678;23.288;2022-11-14T11:24:06;69.97;;;43.20;;
21091;SDS011;10704;42.678;23.288;2022-11-14T11:27:10;68.68;;;43.83;;
21091;SDS011;10704;42.678;23.288;2022-11-14T11:33:43;67.32;;;42.45;;
21091;SDS011;10704;42.678;23.288;2022-11-14T11:36:27;65.57;;;42.30;;
21091;SDS011;10704;42.678;23.288;2022-11-14T11:39:18;68.38;;;43.40;;
21091;SDS011;10704;42.678;23.288;2022-11-14T11:42:10;73.80;;;46.72;;
21091;SDS011;10704;42.678;23.288;2022-11-14T11:45:00;72.35;;;45.67;;
21091;SDS011;10704;42.678;23.288;2022-11-14T11:48:07;77.75;;;46.03;;
21091;SDS011;10704;42.678;23.288;2022-11-14T11:50:57;72.22;;;46.17;;
21091;SDS011;10704;42.678;23.288;2022-11-14T11:54:06;70.43;;;46.20;;
21091;SDS011;10704;42.678;23.288;2022-11-14T11:57:22;72.30;;;44.42;;
21091;SDS011;10704;42.678;23.288;2022-11-14T12:00:16;66.85;;;45.47;;
21091;SDS011;10704;42.678;23.288;2022-11-14T12:03:14;71.40;;;45.72;;
21091;SDS011;10704;42.678;23.288;2022-11-14T12:15:27;69.88;;;45.28;;
21091;SDS011;10704;42.678;23.288;2022-11-14T12:21:26;73.03;;;46.40;;
21091;SDS011;10704;42.678;23.288;2022-11-14T12:30:25;75.25;;;47.15;;
21091;SDS011;10704;42.678;23.288;2022-11-14T12:33:14;75.40;;;47.25;;
21091;SDS011;10704;42.678;23.288;2022-11-14T12:36:03;78.25;;;49.00;;
21091;SDS011;10704;42.678;23.288;2022-11-14T12:38:51;76.25;;;48.45;;
21091;SDS011;10704;42.678;23.288;2022-11-14T12:41:37;75.03;;;45.80;;
21091;SDS011;10704;42.678;23.288;2022-11-14T12:51:47;82.05;;;51.20;;
21091;SDS011;10704;42.678;23.288;2022-11-14T12:54:41;84.90;;;49.92;;
21091;SDS011;10704;42.678;23.288;2022-11-14T12:57:29;76.88;;;48.20;;
21091;SDS011;10704;42.678;23.288;2022-11-14T13:04:22;73.22;;;46.38;;
21091;SDS011;10704;42.678;23.288;2022-11-14T13:10:57;75.43;;;46.45;;
21091;SDS011;10704;42.678;23.288;2022-11-14T13:13:57;77.85;;;47.80;;
21091;SDS011;10704;42.678;23.288;2022-11-14T13:27:46;87.28;;;51.97;;
21091;SDS011;10704;42.678;23.288;2022-11-14T13:33:56;80.35;;;51.22;;
21091;SDS011;10704;42.678;23.288;2022-11-14T13:39:49;81.60;;;49.10;;
21091;SDS011;10704;42.678;23.288;2022-11-14T13:51:56;77.05;;;49.63;;
21091;SDS011;10704;42.678;23.288;2022-11-14T13:54:48;80.72;;;50.63;;
21091;SDS011;10704;42.678;23.288;2022-11-14T14:00:41;83.20;;;51.00;;
21091;SDS011;10704;42.678;23.288;2022-11-14T14:03:43;81.28;;;50.70;;
21091;SDS011;10704;42.678;23.288;2022-11-14T14:06:42;85.18;;;52.00;;
21091;SDS011;10704;42.678;23.288;2022-11-14T14:16:01;85.25;;;53.58;;
21091;SDS011;10704;42.678;23.288;2022-11-14T14:19:05;87.07;;;52.95;;
21091;SDS011;10704;42.678;23.288;2022-11-14T14:25:08;89.45;;;51.40;;
21091;SDS011;10704;42.678;23.288;2022-11-14T14:31:16;92.53;;;52.03;;
21091;SDS011;10704;42.678;23.288;2022-11-14T14:34:25;85.57;;;50.58;;
21091;SDS011;10704;42.678;23.288;2022-11-14T14:37:24;84.80;;;50.40;;
21091;SDS011;10704;42.678;23.288;2022-11-14T14:40:21;120.35;;;71.13;;
21091;SDS011;10704;42.678;23.288;2022-11-14T14:43:12;94.35;;;51.80;;
21091;SDS011;10704;42.678;23.288;2022-11-14T14:46:12;89.10;;;53.22;;
21091;SDS011;10704;42.678;23.288;2022-11-14T14:48:57;87.32;;;52.63;;
21091;SDS011;10704;42.678;23.288;2022-11-14T14:51:44;88.55;;;53.10;;
21091;SDS011;10704;42.678;23.288;2022-11-14T14:54:28;89.60;;;50.67;;
21091;SDS011;10704;42.678;23.288;2022-11-14T14:57:17;96.00;;;54.05;;
21091;SDS011;10704;42.678;23.288;2022-11-14T15:02:51;92.50;;;52.03;;
21091;SDS011;10704;42.678;23.288;2022-11-14T15:05:38;92.30;;;51.72;;
21091;SDS011;10704;42.678;23.288;2022-11-14T15:08:23;98.05;;;51.70;;
21091;SDS011;10704;42.678;23.288;2022-11-14T15:11:08;92.10;;;53.75;;
21091;SDS011;10704;42.678;23.288;2022-11-14T15:13:54;100.10;;;53.78;;
21091;SDS011;10704;42.678;23.288;2022-11-14T15:16:41;100.95;;;54.90;;
21091;SDS011;10704;42.678;23.288;2022-11-14T15:19:30;99.05;;;52.95;;
21091;SDS011;10704;42.678;23.288;2022-11-14T15:22:26;94.00;;;54.17;;
21091;SDS011;10704;42.678;23.288;2022-11-14T15:27:56;102.47;;;56.38;;
21091;SDS011;10704;42.678;23.288;2022-11-14T15:30:54;102.40;;;57.30;;
21091;SDS011;10704;42.678;23.288;2022-11-14T15:33:43;116.47;;;65.68;;
21091;SDS011;10704;42.678;23.288;2022-11-14T15:36:27;131.70;;;68.80;;
21091;SDS011;10704;42.678;23.288;2022-11-14T15:42:59;147.35;;;76.63;;
21091;SDS011;10704;42.678;23.288;2022-11-14T15:45:44;151.25;;;79.60;;
21091;SDS011;10704;42.678;23.288;2022-11-14T15:48:29;138.25;;;70.70;;
21091;SDS011;10704;42.678;23.288;2022-11-14T15:51:14;140.40;;;72.13;;
21091;SDS011;10704;42.678;23.288;2022-11-14T15:53:58;126.40;;;67.40;;
21091;SDS011;10704;42.678;23.288;2022-11-14T15:56:43;121.65;;;66.82;;
21091;SDS011;10704;42.678;23.288;2022-11-14T15:59:28;116.85;;;63.08;;
21091;SDS011;10704;42.678;23.288;2022-11-14T16:02:20;122.70;;;64.10;;
21091;SDS011;10704;42.678;23.288;2022-11-14T16:05:10;124.97;;;64.65;;
21091;SDS011;10704;42.678;23.288;2022-11-14T16:07:56;116.50;;;62.35;;
21091;SDS011;10704;42.678;23.288;2022-11-14T16:10:41;114.50;;;61.35;;
21091;SDS011;10704;42.678;23.288;2022-11-14T16:13:26;115.60;;;60.22;;
21091;SDS011;10704;42.678;23.288;2022-11-14T16:16:10;110.82;;;60.30;;
21091;SDS011;10704;42.678;23.288;2022-11-14T16:18:54;126.53;;;63.60;;
21091;SDS011;10704;42.678;23.288;2022-11-14T16:21:39;113.10;;;63.60;;
21091;SDS011;10704;42.678;23.288;2022-11-14T16:24:24;112.30;;;66.63;;
21091;SDS011;10704;42.678;23.288;2022-11-14T16:27:08;116.10;;;63.03;;
21091;SDS011;10704;42.678;23.288;2022-11-14T16:29:53;117.63;;;64.25;;
21091;SDS011;10704;42.678;23.288;2022-11-14T16:32:38;120.05;;;67.57;;
21091;SDS011;10704;42.678;23.288;2022-11-14T16:35:24;131.70;;;67.43;;
21091;SDS011;10704;42.678;23.288;2022-11-14T16:38:11;120.45;;;63.30;;
21091;SDS011;10704;42.678;23.288;2022-11-14T16:40:56;127.88;;;72.07;;
21091;SDS011;10704;42.678;23.288;2022-11-14T16:43:43;142.80;;;77.90;;
21091;SDS011;10704;42.678;23.288;2022-11-14T16:46:27;143.32;;;80.35;;
21091;SDS011;10704;42.678;23.288;2022-11-14T16:49:15;140.80;;;79.78;;
21091;SDS011;10704;42.678;23.288;2022-11-14T16:52:02;155.68;;;82.15;;
21091;SDS011;10704;42.678;23.288;2022-11-14T16:54:51;136.10;;;76.57;;
21091;SDS011;10704;42.678;23.288;2022-11-14T16:57:36;147.25;;;82.32;;
21091;SDS011;10704;42.678;23.288;2022-11-14T17:00:21;138.15;;;78.65;;
21091;SDS011;10704;42.678;23.288;2022-11-14T17:03:05;145.70;;;82.85;;
21091;SDS011;10704;42.678;23.288;2022-11-14T17:05:50;137.88;;;73.75;;
21091;SDS011;10704;42.678;23.288;2022-11-14T17:08:35;129.75;;;74.75;;
21091;SDS011;10704;42.678;23.288;2022-11-14T17:11:20;144.00;;;78.78;;
21091;SDS011;10704;42.678;23.288;2022-11-14T17:14:05;145.45;;;73.72;;
21091;SDS011;10704;42.678;23.288;2022-11-14T17:16:50;137.80;;;76.78;;
21091;SDS011;10704;42.678;23.288;2022-11-14T17:19:34;131.77;;;73.00;;
21091;SDS011;10704;42.678;23.288;2022-11-14T17:22:19;145.32;;;76.88;;
21091;SDS011;10704;42.678;23.288;2022-11-14T17:25:03;122.65;;;72.82;;
21091;SDS011;10704;42.678;23.288;2022-11-14T17:27:48;133.52;;;74.15;;
21091;SDS011;10704;42.678;23.288;2022-11-14T17:30:33;140.23;;;72.75;;
21091;SDS011;10704;42.678;23.288;2022-11-14T17:33:22;132.73;;;70.80;;
21091;SDS011;10704;42.678;23.288;2022-11-14T17:36:08;144.38;;;71.22;;
21091;SDS011;10704;42.678;23.288;2022-11-14T17:38:54;147.70;;;74.50;;
21091;SDS011;10704;42.678;23.288;2022-11-14T17:41:39;137.00;;;75.70;;
21091;SDS011;10704;42.678;23.288;2022-11-14T17:44:24;130.57;;;72.47;;
21091;SDS011;10704;42.678;23.288;2022-11-14T17:47:09;132.13;;;70.95;;
21091;SDS011;10704;42.678;23.288;2022-11-14T17:49:54;149.25;;;82.43;;
21091;SDS011;10704;42.678;23.288;2022-11-14T17:52:38;145.80;;;80.35;;
21091;SDS011;10704;42.678;23.288;2022-11-14T17:55:24;152.88;;;84.45;;
21091;SDS011;10704;42.678;23.288;2022-11-14T17:58:09;141.05;;;79.22;;
21091;SDS011;10704;42.678;23.288;2022-11-14T18:00:53;137.90;;;76.53;;
21091;SDS011;10704;42.678;23.288;2022-11-14T18:03:38;134.38;;;72.65;;
21091;SDS011;10704;42.678;23.288;2022-11-14T18:06:23;130.32;;;70.60;;
21091;SDS011;10704;42.678;23.288;2022-11-14T18:09:09;129.52;;;70.93;;
21091;SDS011;10704;42.678;23.288;2022-11-14T18:11:53;127.85;;;68.30;;
21091;SDS011;10704;42.678;23.288;2022-11-14T18:14:38;123.85;;;65.40;;
21091;SDS011;10704;42.678;23.288;2022-11-14T18:17:22;123.10;;;67.07;;
21091;SDS011;10704;42.678;23.288;2022-11-14T18:20:07;130.00;;;74.03;;
21091;SDS011;10704;42.678;23.288;2022-11-14T18:22:51;135.45;;;72.22;;
21091;SDS011;10704;42.678;23.288;2022-11-14T18:25:36;135.18;;;76.13;;
21091;SDS011;10704;42.678;23.288;2022-11-14T18:28:20;137.55;;;77.15;;
21091;SDS011;10704;42.678;23.288;2022-11-14T18:31:05;148.77;;;80.60;;
21091;SDS011;10704;42.678;23.288;2022-11-14T18:33:53;128.93;;;72.82;;
21091;SDS011;10704;42.678;23.288;2022-11-14T18:36:37;140.25;;;73.95;;
21091;SDS011;10704;42.678;23.288;2022-11-14T18:39:22;211.63;;;105.57;;
21091;SDS011;10704;42.678;23.288;2022-11-14T18:42:08;172.55;;;88.22;;
21091;SDS011;10704;42.678;23.288;2022-11-14T18:44:53;170.73;;;89.22;;
21091;SDS011;10704;42.678;23.288;2022-11-14T18:47:37;163.68;;;85.70;;
21091;SDS011;10704;42.678;23.288;2022-11-14T18:50:22;166.32;;;88.95;;
21091;SDS011;10704;42.678;23.288;2022-11-14T18:53:07;181.77;;;97.75;;
21091;SDS011;10704;42.678;23.288;2022-11-14T18:55:51;195.63;;;98.22;;
21091;SDS011;10704;42.678;23.288;2022-11-14T18:58:36;166.88;;;91.57;;
21091;SDS011;10704;42.678;23.288;2022-11-14T19:01:23;119.32;;;67.25;;
21091;SDS011;10704;42.678;23.288;2022-11-14T19:04:09;118.93;;;62.25;;
21091;SDS011;10704;42.678;23.288;2022-11-14T19:06:54;110.30;;;59.20;;
21091;SDS011;10704;42.678;23.288;2022-11-14T19:09:39;111.63;;;57.13;;
21091;SDS011;10704;42.678;23.288;2022-11-14T19:12:23;95.72;;;52.08;;
21091;SDS011;10704;42.678;23.288;2022-11-14T19:15:08;101.18;;;50.92;;
21091;SDS011;10704;42.678;23.288;2022-11-14T19:17:53;113.80;;;59.08;;
21091;SDS011;10704;42.678;23.288;2022-11-14T19:20:38;113.20;;;60.28;;
21091;SDS011;10704;42.678;23.288;2022-11-14T19:23:23;114.18;;;58.17;;
21091;SDS011;10704;42.678;23.288;2022-11-14T19:26:08;102.18;;;54.15;;
21091;SDS011;10704;42.678;23.288;2022-11-14T19:28:52;106.68;;;56.63;;
21091;SDS011;10704;42.678;23.288;2022-11-14T19:31:39;97.63;;;54.28;;
21091;SDS011;10704;42.678;23.288;2022-11-14T19:34:25;97.38;;;54.45;;
21091;SDS011;10704;42.678;23.288;2022-11-14T19:37:10;98.13;;;54.40;;
21091;SDS011;10704;42.678;23.288;2022-11-14T19:39:54;101.03;;;52.05;;
21091;SDS011;10704;42.678;23.288;2022-11-14T19:42:39;97.00;;;50.40;;
21091;SDS011;10704;42.678;23.288;2022-11-14T19:45:24;88.13;;;47.17;;
21091;SDS011;10704;42.678;23.288;2022-11-14T19:48:08;88.28;;;46.22;;
21091;SDS011;10704;42.678;23.288;2022-11-14T19:51:00;81.88;;;45.35;;
21091;SDS011;10704;42.678;23.288;2022-11-14T19:53:46;93.47;;;45.10;;
21091;SDS011;10704;42.678;23.288;2022-11-14T19:56:31;81.95;;;42.58;;